Springdale, Connecticut
Current Conditions -  °F | °C
As of 6:56 AM on Saturday 20 Dec 2014 (Local Time) from KHPN Reporting Station
Overcast Overcast  
Wind Chill: 22°   Ceiling: 2100
Heat Index: 28°   Visibility: 10mi
Dew Point: 19°   Wind: 6mph
Humidity: 69%   Direction: 350°N
Pressure: 30.24"   Gusts: NA
Location:  41.1005°N, 73.521°W
Report Text: KHPN 201156Z 35005KT 10SM OVC021 M02/M07 A3024 RMK AO2 SLP250 T10221072 11022 21033 51019
Loading
Personal Weather Stations






























Interactive Weather Map New forecast layout! Learn more

10-Day Weather Forecast

Advertisements
Track Severe Weather on mobile